createdAt,value
2022-09-21T00:02:46.621Z,5.80
2022-09-21T00:06:47.690Z,8.20
2022-09-21T00:10:49.780Z,7.40
2022-09-21T00:14:50.745Z,7.53
2022-09-21T00:18:52.116Z,7.10
2022-09-21T00:22:53.258Z,7.03
2022-09-21T00:26:56.229Z,6.47
2022-09-21T00:31:03.091Z,6.23
2022-09-21T00:35:07.031Z,5.53
2022-09-21T00:39:09.346Z,6.13
2022-09-21T00:43:15.480Z,6.43
2022-09-21T00:47:39.339Z,6.67
2022-09-21T00:51:41.542Z,6.70
2022-09-21T00:55:46.387Z,6.07
2022-09-21T00:59:51.380Z,5.60
2022-09-21T01:03:53.153Z,5.87
2022-09-21T01:07:56.426Z,6.20
2022-09-21T01:12:26.706Z,6.43
2022-09-21T01:16:34.727Z,6.30
2022-09-21T01:21:10.637Z,7.00
2022-09-21T01:25:32.475Z,7.83
2022-09-21T01:29:46.531Z,6.40
2022-09-21T01:33:51.328Z,6.93
2022-09-21T01:38:05.277Z,6.47
2022-09-21T01:42:08.199Z,6.03
2022-09-21T01:46:13.214Z,6.37
2022-09-21T01:50:16.315Z,7.90
2022-09-21T01:54:20.990Z,7.00
2022-09-21T01:58:26.395Z,6.17
2022-09-21T02:02:43.525Z,6.90
2022-09-21T02:06:47.452Z,6.97
2022-09-21T02:10:51.292Z,7.27
2022-09-21T02:14:56.554Z,6.47
2022-09-21T02:19:24.218Z,6.13
2022-09-21T02:23:29.034Z,5.27
2022-09-21T02:27:51.990Z,5.07
2022-09-21T02:32:11.763Z,5.50
2022-09-21T02:36:22.811Z,5.40
2022-09-21T02:40:29.903Z,5.57
2022-09-21T02:44:38.378Z,4.83
2022-09-21T02:48:52.141Z,4.70
2022-09-21T02:52:54.311Z,6.23
2022-09-21T02:56:57.710Z,5.40
2022-09-21T03:00:59.338Z,5.40
2022-09-21T03:05:00.460Z,5.83
2022-09-21T03:09:01.524Z,5.90
2022-09-21T03:13:03.072Z,6.63
2022-09-21T03:17:04.093Z,6.03
2022-09-21T03:21:05.817Z,6.90
2022-09-21T03:25:09.686Z,5.30
2022-09-21T03:29:10.833Z,5.93
2022-09-21T03:33:12.469Z,6.83
2022-09-21T03:37:13.472Z,7.23
2022-09-21T03:41:14.580Z,9.23
2022-09-21T03:45:15.761Z,7.23
2022-09-21T03:49:17.611Z,6.93
2022-09-21T03:53:18.492Z,5.53
2022-09-21T03:57:19.445Z,5.13
2022-09-21T04:01:20.510Z,5.13
2022-09-21T04:05:22.470Z,13.50
2022-09-21T04:09:23.540Z,11.57
2022-09-21T04:13:24.483Z,17.20
2022-09-21T04:17:25.538Z,11.40
2022-09-21T04:21:26.544Z,10.17
2022-09-21T04:25:28.112Z,10.40
2022-09-21T04:29:29.487Z,9.30
2022-09-21T04:33:30.582Z,8.73
2022-09-21T04:37:32.228Z,7.57
2022-09-21T04:41:33.387Z,7.70
2022-09-21T04:45:34.805Z,7.13
2022-09-21T04:49:35.901Z,7.33
2022-09-21T04:53:39.259Z,8.00
2022-09-21T04:57:40.227Z,6.30
2022-09-21T05:01:41.470Z,7.27
2022-09-21T05:05:51.907Z,7.80
2022-09-21T05:10:05.557Z,7.47
2022-09-21T05:14:07.130Z,7.43
2022-09-21T05:18:08.127Z,9.07
2022-09-21T05:22:09.204Z,9.40
2022-09-21T05:26:10.233Z,8.97
2022-09-21T05:30:12.439Z,8.37
2022-09-21T05:34:32.980Z,10.93
2022-09-21T05:38:34.078Z,10.13
2022-09-21T05:42:35.497Z,11.50
2022-09-21T05:46:40.498Z,9.63
2022-09-21T05:51:00.309Z,8.50
2022-09-21T05:55:26.529Z,7.73
2022-09-21T05:59:51.978Z,8.90
2022-09-21T06:03:55.234Z,9.93
2022-09-21T06:07:58.180Z,10.43
2022-09-21T06:11:59.255Z,10.90
2022-09-21T06:16:04.247Z,10.20
2022-09-21T06:20:06.847Z,10.80
2022-09-21T06:24:08.010Z,13.20
2022-09-21T06:28:11.838Z,15.93
2022-09-21T06:32:13.164Z,14.27
2022-09-21T06:36:15.281Z,13.13
2022-09-21T06:40:16.270Z,14.37
2022-09-21T06:44:17.497Z,20.90
2022-09-21T06:48:18.624Z,23.23
2022-09-21T06:52:19.571Z,23.57
2022-09-21T06:56:20.526Z,22.93
2022-09-21T07:00:21.520Z,21.17
2022-09-21T07:04:25.224Z,19.07
2022-09-21T07:12:29.331Z,14.23
2022-09-21T07:16:30.417Z,10.50
2022-09-21T07:20:31.698Z,8.40
2022-09-21T07:24:32.786Z,7.87
2022-09-21T07:28:34.677Z,8.27
2022-09-21T07:32:35.934Z,7.53
2022-09-21T07:36:36.919Z,6.23
2022-09-21T07:40:37.957Z,5.17
2022-09-21T07:44:39.019Z,5.53
2022-09-21T07:48:40.329Z,6.40
2022-09-21T07:52:41.508Z,6.23
2022-09-21T07:56:44.419Z,6.77
2022-09-21T08:00:45.451Z,6.40
2022-09-21T08:04:46.623Z,6.57
2022-09-21T08:08:48.035Z,6.23
2022-09-21T08:12:49.583Z,7.63
2022-09-21T08:16:50.663Z,7.30
2022-09-21T08:20:59.979Z,6.97
2022-09-21T08:25:01.065Z,6.53
2022-09-21T08:29:02.964Z,5.57
2022-09-21T08:33:04.198Z,4.93
2022-09-21T08:37:05.235Z,5.80
2022-09-21T08:41:19.425Z,5.27
2022-09-21T08:45:21.522Z,5.53
2022-09-21T08:49:25.798Z,5.20
2022-09-21T08:53:40.076Z,4.77
2022-09-21T08:57:41.013Z,4.63
2022-09-21T09:01:45.900Z,5.03
2022-09-21T09:05:50.768Z,4.70
2022-09-21T09:09:58.427Z,5.03
2022-09-21T09:14:15.573Z,3.90
2022-09-21T09:18:26.760Z,3.50
2022-09-21T09:22:40.893Z,3.53
2022-09-21T09:26:45.729Z,5.13
2022-09-21T09:30:49.130Z,2.40
2022-09-21T09:34:54.074Z,2.50
2022-09-21T09:38:57.685Z,2.67
2022-09-21T09:43:04.951Z,2.83
2022-09-21T09:47:18.512Z,2.30
2022-09-21T09:51:19.522Z,2.40
2022-09-21T09:55:26.196Z,2.73
2022-09-21T09:59:35.068Z,3.00
2022-09-21T10:03:36.698Z,2.70
2022-09-21T10:07:45.204Z,2.90
2022-09-21T10:11:47.422Z,2.53
2022-09-21T10:15:51.766Z,2.67
2022-09-21T10:20:00.524Z,2.57
2022-09-21T10:24:20.980Z,2.67
2022-09-21T10:28:26.361Z,1.70
2022-09-21T10:32:32.855Z,1.83
2022-09-21T10:36:36.677Z,1.90
2022-09-21T10:40:39.086Z,2.03
2022-09-21T10:44:43.413Z,3.40
2022-09-21T10:48:45.928Z,1.90
2022-09-21T10:52:48.311Z,1.90
2022-09-21T10:56:52.286Z,1.53
2022-09-21T11:00:54.868Z,1.30
2022-09-21T11:05:02.467Z,1.00
2022-09-21T11:09:21.988Z,1.70
2022-09-21T11:13:26.910Z,1.80
2022-09-21T11:17:52.721Z,0.90
2022-09-21T11:22:03.483Z,1.33
2022-09-21T11:26:11.027Z,1.50
2022-09-21T11:30:15.344Z,1.00
2022-09-21T11:34:26.416Z,1.07
2022-09-21T11:38:58.625Z,1.77
2022-09-21T11:43:22.911Z,1.60
2022-09-21T11:47:58.331Z,1.67
2022-09-21T11:52:27.623Z,1.77
2022-09-21T11:56:40.562Z,1.30
2022-09-21T12:00:56.642Z,1.40
2022-09-21T12:05:17.271Z,1.53
2022-09-21T12:09:33.947Z,1.17
2022-09-21T12:14:01.537Z,1.33
2022-09-21T12:18:09.494Z,1.33
2022-09-21T12:22:15.110Z,1.13
2022-09-21T12:26:25.971Z,1.27
2022-09-21T12:30:30.809Z,1.67
2022-09-21T12:34:41.463Z,1.53
2022-09-21T12:39:03.382Z,1.13
2022-09-21T12:43:11.809Z,1.27
2022-09-21T12:47:14.262Z,1.27
2022-09-21T12:51:37.644Z,0.90
2022-09-21T12:56:13.802Z,1.30
2022-09-21T13:00:19.173Z,1.27
2022-09-21T13:04:42.277Z,0.80
2022-09-21T13:08:46.385Z,1.00
2022-09-21T13:12:52.482Z,0.87
2022-09-21T13:17:00.533Z,1.40
2022-09-21T13:21:17.926Z,0.80
2022-09-21T13:25:26.809Z,0.97
2022-09-21T13:29:32.292Z,0.50
2022-09-21T13:33:39.099Z,0.50
2022-09-21T13:37:40.191Z,0.40
2022-09-21T13:42:01.785Z,0.40
2022-09-21T13:45:53.714Z,0.57
2022-09-21T13:50:00.350Z,0.70
2022-09-21T13:54:01.520Z,0.50
2022-09-21T13:58:05.906Z,0.40
2022-09-21T14:02:19.934Z,1.00
2022-09-21T14:06:25.073Z,0.50
2022-09-21T14:10:27.755Z,0.50
2022-09-21T14:14:32.414Z,0.67
2022-09-21T14:18:37.422Z,0.73
2022-09-21T14:22:40.238Z,0.90
2022-09-21T14:26:45.047Z,1.10
2022-09-21T14:30:52.657Z,0.80
2022-09-21T14:34:57.476Z,1.40
2022-09-21T14:39:02.299Z,0.83
2022-09-21T14:43:09.598Z,0.70
2022-09-21T14:47:20.410Z,0.50
2022-09-21T14:52:20.215Z,0.93
2022-09-21T14:56:09.009Z,0.83
2022-09-21T15:00:21.524Z,0.90
2022-09-21T15:04:32.352Z,0.90
2022-09-21T15:08:58.754Z,0.90
2022-09-21T15:13:04.480Z,1.13
2022-09-21T15:17:28.569Z,1.23
2022-09-21T15:21:32.518Z,0.87
2022-09-21T15:25:33.720Z,1.17
2022-09-21T15:29:36.981Z,1.00
2022-09-21T15:33:38.749Z,2.10
2022-09-21T15:37:39.944Z,0.80
2022-09-21T15:41:47.101Z,0.90
2022-09-21T15:45:58.713Z,0.93
2022-09-21T15:49:59.931Z,0.83
2022-09-21T15:54:11.133Z,0.80
2022-09-21T15:58:36.697Z,1.00
2022-09-21T16:02:39.707Z,1.10
2022-09-21T16:06:43.977Z,0.97
2022-09-21T16:10:45.437Z,1.07
2022-09-21T16:14:53.050Z,1.23
2022-09-21T16:18:55.960Z,1.07
2022-09-21T16:23:07.045Z,1.67
2022-09-21T16:27:11.960Z,1.10
2022-09-21T16:31:31.564Z,0.90
2022-09-21T16:35:36.440Z,0.80
2022-09-21T16:39:37.428Z,0.80
2022-09-21T16:43:40.315Z,1.70
2022-09-21T16:47:41.374Z,1.50
2022-09-21T16:51:42.442Z,1.10
2022-09-21T16:55:45.421Z,1.10
2022-09-21T16:59:47.379Z,0.80
2022-09-21T17:03:48.561Z,1.03
2022-09-21T17:07:55.003Z,0.93
2022-09-21T17:11:58.531Z,1.10
2022-09-21T17:16:00.209Z,0.93
2022-09-21T17:20:05.313Z,1.13
2022-09-21T17:24:06.837Z,1.13
2022-09-21T17:28:14.411Z,1.80
2022-09-21T17:32:21.431Z,2.77
2022-09-21T17:36:22.539Z,7.40
2022-09-21T17:40:24.317Z,3.90
2022-09-21T17:44:41.409Z,3.25
2022-09-21T17:48:42.928Z,2.80
2022-09-21T17:53:02.927Z,2.70
2022-09-21T17:57:13.857Z,4.10
2022-09-21T18:01:30.883Z,2.97
2022-09-21T18:05:32.299Z,2.50
2022-09-21T18:09:33.929Z,3.30
2022-09-21T18:13:55.568Z,4.03
2022-09-21T18:18:09.266Z,4.00
2022-09-21T18:22:16.970Z,4.47
2022-09-21T18:26:19.995Z,2.80
2022-09-21T18:30:21.385Z,4.03
2022-09-21T18:34:38.504Z,6.27
2022-09-21T18:39:05.697Z,7.83
2022-09-21T18:43:27.520Z,5.03
2022-09-21T18:47:58.933Z,2.73
2022-09-21T18:52:16.487Z,3.63
2022-09-21T18:56:18.136Z,4.83
2022-09-21T19:00:20.304Z,4.10
2022-09-21T19:04:21.853Z,3.10
2022-09-21T19:08:26.653Z,3.80
2022-09-21T19:12:48.402Z,4.15
2022-09-21T19:17:11.519Z,2.60
2022-09-21T19:21:33.078Z,1.70
2022-09-21T19:25:41.681Z,2.23
2022-09-21T19:30:03.748Z,3.22
2022-09-21T19:34:17.001Z,2.83
2022-09-21T19:38:18.561Z,2.67
2022-09-21T19:42:30.415Z,3.83
2022-09-21T19:46:35.386Z,5.10
2022-09-21T19:50:44.824Z,6.10
2022-09-21T19:55:04.736Z,6.83
2022-09-21T19:59:26.564Z,6.60
2022-09-21T20:03:35.038Z,8.33
2022-09-21T20:11:58.243Z,5.70
2022-09-21T20:16:03.201Z,10.43
2022-09-21T20:20:13.776Z,8.63
2022-09-21T20:24:24.599Z,7.17
2022-09-21T20:28:26.135Z,6.57
2022-09-21T20:32:27.343Z,6.50
2022-09-21T20:36:28.657Z,5.67
2022-09-21T20:40:31.273Z,5.20
2022-09-21T20:44:32.252Z,6.93
2022-09-21T20:48:33.183Z,6.40
2022-09-21T20:52:34.217Z,11.00
2022-09-21T20:56:35.214Z,13.20
2022-09-21T21:00:37.120Z,11.60
2022-09-21T21:04:38.891Z,11.53
2022-09-21T21:08:42.286Z,10.97
2022-09-21T21:12:43.070Z,10.97
2022-09-21T21:16:44.013Z,7.07
2022-09-21T21:20:45.051Z,5.63
2022-09-21T21:24:47.244Z,5.07
2022-09-21T21:28:50.296Z,4.90
2022-09-21T21:32:52.487Z,5.07
2022-09-21T21:36:53.531Z,4.70
2022-09-21T21:40:55.156Z,5.17
2022-09-21T21:44:56.334Z,5.03
2022-09-21T21:48:57.421Z,4.73
2022-09-21T21:52:58.460Z,5.60
2022-09-21T21:57:00.635Z,6.20
2022-09-21T22:01:14.362Z,6.93
2022-09-21T22:05:15.333Z,7.67
2022-09-21T22:09:17.982Z,5.87
2022-09-21T22:13:19.400Z,5.97
2022-09-21T22:17:20.429Z,5.27
2022-09-21T22:21:25.542Z,5.33
2022-09-21T22:25:27.668Z,6.07
2022-09-21T22:29:28.629Z,5.50
2022-09-21T22:33:33.325Z,4.77
2022-09-21T22:37:34.458Z,5.07
2022-09-21T22:41:37.494Z,6.50
2022-09-21T22:45:38.429Z,5.93
2022-09-21T22:49:39.529Z,4.83
2022-09-21T22:53:40.683Z,4.67
2022-09-21T22:57:41.679Z,4.20
2022-09-21T23:01:42.670Z,7.00
2022-09-21T23:05:43.952Z,8.07
2022-09-21T23:09:44.914Z,7.53
2022-09-21T23:13:45.969Z,11.97
2022-09-21T23:17:47.115Z,12.90
2022-09-21T23:21:49.886Z,13.57
2022-09-21T23:26:12.584Z,11.60
2022-09-21T23:30:16.173Z,8.57
2022-09-21T23:34:17.163Z,5.67
2022-09-21T23:38:18.189Z,6.50
2022-09-21T23:42:19.089Z,5.10
2022-09-21T23:46:23.242Z,5.13
2022-09-21T23:50:24.267Z,5.13
2022-09-21T23:54:25.232Z,5.57
2022-09-21T23:58:26.873Z,5.30
